TimeMST,TemperatureF,Dew PointF,Humidity,Sea Level PressureIn,VisibilityMPH,Wind Direction,Wind SpeedMPH,Gust SpeedMPH,PrecipitationIn,Events,Conditions,WindDirDegrees,DateUTC
12:15 AM,33.8,26.6,75,29.81,10.0,NNE,17.3,-,N/A,,Mostly Cloudy,20,2012-11-11 07:15:00
12:26 AM,30.2,23.0,75,29.82,10.0,NNE,16.1,-,N/A,,Scattered Clouds,20,2012-11-11 07:26:00
12:53 AM,28.9,23.0,78,29.79,10.0,NE,9.2,-,N/A,,Partly Cloudy,40,2012-11-11 07:53:00
1:41 AM,28.4,23.0,80,29.86,10.0,ENE,8.1,-,N/A,,Mostly Cloudy,60,2012-11-11 08:41:00
1:53 AM,28.9,21.9,75,29.84,10.0,NE,9.2,-,N/A,,Overcast,50,2012-11-11 08:53:00
2:06 AM,28.4,21.2,74,29.87,10.0,NE,10.4,-,N/A,,Overcast,50,2012-11-11 09:06:00
2:53 AM,28.9,21.0,72,29.85,10.0,ENE,11.5,-,N/A,,Overcast,60,2012-11-11 09:53:00
3:15 AM,28.4,21.2,74,29.89,10.0,NE,15.0,-,N/A,,Overcast,50,2012-11-11 10:15:00
3:32 AM,28.4,21.2,74,29.90,8.0,NNE,10.4,-,0.00,Snow,Light Snow,30,2012-11-11 10:32:00
3:53 AM,27.0,21.9,81,29.89,3.0,NNE,13.8,-,0.00,Snow,Light Snow,30,2012-11-11 10:53:00
4:05 AM,26.6,23.0,86,29.90,3.0,NE,10.4,-,0.00,Snow,Light Snow,40,2012-11-11 11:05:00
4:53 AM,27.0,21.9,81,29.91,10.0,NNE,8.1,-,0.00,,Overcast,30,2012-11-11 11:53:00
5:02 AM,26.6,21.2,80,29.91,10.0,NNE,8.1,-,N/A,,Overcast,30,2012-11-11 12:02:00
5:53 AM,26.1,19.9,78,29.95,8.0,NNE,9.2,-,0.00,Snow,Light Snow,30,2012-11-11 12:53:00
6:35 AM,24.8,19.4,80,29.96,9.0,NNE,6.9,-,0.00,,Overcast,30,2012-11-11 13:35:00
7:53 AM,27.0,19.9,75,30.02,9.0,NNE,6.9,-,0.00,,Overcast,20,2012-11-11 14:53:00
9:30 AM,28.4,21.2,74,30.03,2.5,NNW,9.2,-,0.00,Snow,Light Snow,340,2012-11-11 16:30:00
9:43 AM,30.2,19.4,64,30.03,7.0,NNW,9.2,-,0.00,,Overcast,340,2012-11-11 16:43:00
10:32 AM,30.2,19.4,64,30.04,9.0,North,9.2,-,0.00,,Overcast,350,2012-11-11 17:32:00
10:53 AM,30.9,19.0,61,30.08,8.0,North,8.1,-,0.00,,Overcast,350,2012-11-11 17:53:00
11:33 AM,30.2,24.8,80,30.05,1.8,North,13.8,-,0.00,Snow,Light Snow,350,2012-11-11 18:33:00
11:38 AM,30.2,24.8,80,30.05,1.0,NNW,11.5,-,0.00,Snow,Light Snow,340,2012-11-11 18:38:00
11:46 AM,28.4,24.8,86,30.05,0.5,North,9.2,-,0.00,Fog-Snow,Light Snow,360,2012-11-11 18:46:00
11:53 AM,28.0,24.1,85,30.09,0.8,North,8.1,-,0.00,Snow,Light Snow,360,2012-11-11 18:53:00
12:04 PM,28.4,24.8,86,30.04,1.2,North,5.8,-,0.00,Snow,Light Snow,360,2012-11-11 19:04:00
12:13 PM,28.4,24.8,86,30.04,1.0,North,5.8,-,0.00,Snow,Light Snow,360,2012-11-11 19:13:00
12:20 PM,28.4,24.8,86,30.04,1.5,North,5.8,-,0.00,Snow,Light Snow,10,2012-11-11 19:20:00
12:32 PM,28.4,26.6,93,30.04,3.0,North,5.8,-,0.00,Snow,Light Snow,10,2012-11-11 19:32:00
12:43 PM,28.4,24.8,86,30.04,3.0,North,5.8,-,0.00,Snow,Light Snow,360,2012-11-11 19:43:00
12:53 PM,30.0,26.1,85,30.09,3.0,North,5.8,-,0.00,Snow,Light Snow,350,2012-11-11 19:53:00
1:22 PM,30.2,24.8,80,30.04,10.0,Calm,Calm,-,0.00,,Mostly Cloudy,0,2012-11-11 20:22:00
1:33 PM,30.2,24.8,80,30.04,10.0,NW,5.8,-,0.00,,Mostly Cloudy,320,2012-11-11 20:33:00
1:53 PM,30.9,25.0,79,30.10,10.0,Calm,Calm,-,0.00,,Overcast,0,2012-11-11 20:53:00
2:12 PM,33.8,24.8,70,30.05,10.0,Calm,Calm,-,N/A,,Overcast,0,2012-11-11 21:12:00
2:53 PM,33.1,24.1,70,30.11,10.0,Calm,Calm,-,N/A,,Mostly Cloudy,0,2012-11-11 21:53:00
3:19 PM,32.0,24.8,75,30.07,10.0,Calm,Calm,-,N/A,,Scattered Clouds,0,2012-11-11 22:19:00
3:53 PM,33.1,24.1,70,30.14,10.0,Calm,Calm,-,N/A,,Clear,0,2012-11-11 22:53:00
4:53 PM,32.0,24.1,73,30.16,10.0,Calm,Calm,-,N/A,,Overcast,0,2012-11-11 23:53:00
5:53 PM,30.9,25.0,79,30.18,10.0,SSE,4.6,-,N/A,,Overcast,160,2012-11-12 00:53:00
6:53 PM,28.9,23.0,78,30.21,10.0,Calm,Calm,-,N/A,,Mostly Cloudy,0,2012-11-12 01:53:00
7:53 PM,30.9,24.1,76,30.24,10.0,ENE,4.6,-,N/A,,Overcast,70,2012-11-12 02:53:00
8:53 PM,33.1,21.9,64,30.26,10.0,Calm,Calm,-,0.00,,Overcast,0,2012-11-12 03:53:00
9:26 PM,33.8,24.8,70,30.23,1.8,WNW,9.2,21.9,0.00,Snow,Light Snow,300,2012-11-12 04:26:00
9:31 PM,32.0,24.8,75,30.23,1.2,NW,17.3,23.0,0.00,Snow,Light Snow,320,2012-11-12 04:31:00
9:44 PM,30.2,26.6,86,30.24,1.0,NNW,11.5,-,0.00,Snow,Light Snow,330,2012-11-12 04:44:00
9:49 PM,30.2,26.6,86,30.24,0.5,NNW,9.2,-,0.01,Fog-Snow,Snow,330,2012-11-12 04:49:00
9:53 PM,30.0,28.0,92,30.30,0.2,NNW,6.9,-,0.02,Fog-Snow,Heavy Snow,340,2012-11-12 04:53:00
10:14 PM,30.2,28.4,93,30.23,0.5,SSE,4.6,-,0.05,Fog-Snow,Snow,160,2012-11-12 05:14:00
10:33 PM,28.4,28.4,100,30.22,1.2,ESE,4.6,-,0.06,Snow,Light Snow,110,2012-11-12 05:33:00
10:36 PM,28.4,28.4,100,30.22,2.0,ESE,4.6,-,0.06,Snow,Light Snow,120,2012-11-12 05:36:00
10:39 PM,28.4,26.6,93,30.22,3.0,ESE,4.6,-,0.06,Snow,Light Snow,110,2012-11-12 05:39:00
10:53 PM,25.0,25.0,100,30.29,5.0,Calm,Calm,-,0.06,,Partly Cloudy,0,2012-11-12 05:53:00
11:06 PM,24.8,23.0,93,30.23,1.8,ENE,4.6,-,N/A,,Clear,70,2012-11-12 06:06:00
11:08 PM,23.0,23.0,100,30.23,1.0,East,4.6,-,N/A,,Clear,80,2012-11-12 06:08:00
11:11 PM,23.0,23.0,100,30.23,0.5,East,3.5,-,N/A,Fog,Light Freezing Fog,100,2012-11-12 06:11:00
11:53 PM,18.0,16.0,92,30.33,0.2,SSW,10.4,-,N/A,Fog,Light Freezing Fog,200,2012-11-12 06:53:00